Time;durP1;ratioP1;P1;durP2;ratioP2;P2;SDS_P1;SDS_P2;PMS_P1;PMS_P2;Temp;Humidity;BMP_temperature;BMP_pressure;BME280_temperature;BME280_humidity;BME280_pressure;Samples;Min_cycle;Max_cycle;Signal;HPM_P1;HPM_P2
2023/05/06 00:00:09;;;;;;;42.15;38.22;;;;;;;;;;5032522;28;20025;-55
2023/05/06 00:02:35;;;;;;;41.97;38.05;;;;;;;;;;5032542;28;20113;-53
2023/05/06 00:05:02;;;;;;;38.60;34.90;;;;;;;;;;5032477;28;20060;-53
2023/05/06 00:07:28;;;;;;;41.42;37.55;;;;;;;;;;5032734;28;20444;-57
2023/05/06 00:09:54;;;;;;;40.95;37.17;;;;;;;;;;5032465;28;20444;-57
2023/05/06 00:12:20;;;;;;;40.10;36.40;;;;;;;;;;5032612;28;20022;-57
2023/05/06 00:14:46;;;;;;;40.60;36.88;;;;;;;;;;5032169;28;20030;-53
2023/05/06 00:17:12;;;;;;;39.65;36.00;;;;;;;;;;5032358;28;20033;-54
2023/05/06 00:19:38;;;;;;;41.55;37.55;;;;;;;;;;5032469;28;20108;-54
2023/05/06 00:22:04;;;;;;;40.25;36.40;;;;;;;;;;5032355;28;20078;-57
2023/05/06 00:24:30;;;;;;;39.85;35.95;;;;;;;;;;5032110;28;20405;-54
2023/05/06 00:26:57;;;;;;;47.05;42.55;;;;;;;;;;5030970;28;20025;-55
2023/05/06 00:29:23;;;;;;;46.10;41.75;;;;;;;;;;5031222;28;20021;-54
2023/05/06 00:31:49;;;;;;;45.58;41.33;;;;;;;;;;5032345;28;20156;-56
2023/05/06 00:34:15;;;;;;;43.85;39.75;;;;;;;;;;5031963;28;20037;-54
2023/05/06 00:36:41;;;;;;;42.88;38.85;;;;;;;;;;5032166;28;20532;-52
2023/05/06 00:39:08;;;;;;;44.08;39.92;;;;;;;;;;5030964;28;20057;-54
2023/05/06 00:41:34;;;;;;;42.72;38.67;;;;;;;;;;5030878;28;20452;-58
2023/05/06 00:44:00;;;;;;;43.30;39.30;;;;;;;;;;5031761;28;20029;-54
2023/05/06 00:46:26;;;;;;;41.20;37.25;;;;;;;;;;5030592;28;20026;-56
2023/05/06 00:48:53;;;;;;;41.80;38.00;;;;;;;;;;5031781;28;20427;-54
2023/05/06 00:51:19;;;;;;;41.13;37.22;;;;;;;;;;5032014;28;20453;-53
2023/05/06 00:53:48;;;;;;;40.17;36.47;;;;;;;;;;5031957;28;20143;-54
2023/05/06 00:56:16;;;;;;;40.22;36.55;;;;;;;;;;5031568;28;20063;-55
2023/05/06 00:58:43;;;;;;;40.58;36.78;;;;;;;;;;5031821;28;20025;-57
2023/05/06 01:01:09;;;;;;;40.67;36.88;;;;;;;;;;5030408;28;20030;-51
2023/05/06 01:03:35;;;;;;;41.10;37.20;;;;;;;;;;5031751;28;20055;-59
2023/05/06 01:06:11;;;;;;;39.90;36.20;;;;;;;;;;5031658;28;20030;-57
2023/05/06 01:08:50;;;;;;;40.47;36.63;;;;;;;;;;5030362;28;20053;-53
2023/05/06 01:11:24;;;;;;;40.67;36.67;;;;;;;;;;5031787;28;20021;-54
2023/05/06 01:13:52;;;;;;;40.53;36.67;;;;;;;;;;5031917;28;20448;-54
2023/05/06 01:16:20;;;;;;;38.22;34.65;;;;;;;;;;5031560;28;20025;-52
2023/05/06 01:18:48;;;;;;;39.08;35.35;;;;;;;;;;5030271;28;20030;-53
2023/05/06 01:21:15;;;;;;;40.63;36.85;;;;;;;;;;5030252;28;20041;-56
2023/05/06 01:23:54;;;;;;;39.30;35.63;;;;;;;;;;5031422;28;20029;-55
2023/05/06 01:26:21;;;;;;;39.85;36.05;;;;;;;;;;5030697;28;20056;-55
2023/05/06 01:28:47;;;;;;;39.53;35.72;;;;;;;;;;5031170;28;20025;-52
2023/05/06 01:31:16;;;;;;;40.20;36.40;;;;;;;;;;5031035;28;20033;-54
2023/05/06 01:34:18;;;;;;;39.55;35.88;;;;;;;;;;5031385;28;20116;-53
2023/05/06 01:37:03;;;;;;;40.42;36.63;;;;;;;;;;4989746;28;20022;-56
2023/05/06 01:39:30;;;;;;;38.80;35.30;;;;;;;;;;5027284;28;20061;-58
2023/05/06 01:41:58;;;;;;;38.95;35.03;;;;;;;;;;5031153;28;20380;-57
2023/05/06 01:44:25;;;;;;;39.65;36.00;;;;;;;;;;5029886;28;20108;-57
2023/05/06 01:46:52;;;;;;;40.45;36.67;;;;;;;;;;5031677;28;20014;-51
2023/05/06 01:49:18;;;;;;;39.15;35.50;;;;;;;;;;5031670;28;20029;-52
2023/05/06 01:51:51;;;;;;;38.63;35.13;;;;;;;;;;5031422;28;20083;-56
2023/05/06 01:54:17;;;;;;;37.75;34.25;;;;;;;;;;5030193;28;20121;-53
2023/05/06 01:56:43;;;;;;;38.58;34.97;;;;;;;;;;5031509;28;20389;-56
2023/05/06 01:59:09;;;;;;;38.72;35.03;;;;;;;;;;5031242;28;20068;-55
2023/05/06 02:01:35;;;;;;;38.97;35.15;;;;;;;;;;5031389;28;20386;-55
2023/05/06 02:04:01;;;;;;;37.28;33.63;;;;;;;;;;5030599;28;20028;-52
2023/05/06 02:06:27;;;;;;;40.17;36.28;;;;;;;;;;5031013;28;20029;-57
2023/05/06 02:08:53;;;;;;;38.45;34.85;;;;;;;;;;5029990;28;20047;-52
2023/05/06 02:11:19;;;;;;;38.22;34.72;;;;;;;;;;5031046;28;20032;-54
2023/05/06 02:13:45;;;;;;;36.28;33.08;;;;;;;;;;5031204;28;20028;-53
2023/05/06 02:16:11;;;;;;;36.42;33.13;;;;;;;;;;5031281;28;20029;-54
2023/05/06 02:18:37;;;;;;;36.70;33.40;;;;;;;;;;5029921;28;20080;-59
2023/05/06 02:21:03;;;;;;;36.35;33.00;;;;;;;;;;5032721;28;20115;-56
2023/05/06 02:23:29;;;;;;;36.95;33.55;;;;;;;;;;5034860;28;20036;-56
2023/05/06 02:25:56;;;;;;;38.58;34.58;;;;;;;;;;5034492;28;20029;-51
2023/05/06 02:28:23;;;;;;;36.75;33.22;;;;;;;;;;5033165;28;20039;-54
2023/05/06 02:30:49;;;;;;;47.30;36.00;;;;;;;;;;5034398;28;20036;-54
2023/05/06 02:33:15;;;;;;;46.83;36.92;;;;;;;;;;5034578;28;20026;-52
2023/05/06 02:35:41;;;;;;;44.83;36.28;;;;;;;;;;5033035;28;20070;-54
2023/05/06 02:38:07;;;;;;;53.97;37.00;;;;;;;;;;5033158;28;20500;-54
2023/05/06 02:40:33;;;;;;;43.50;37.10;;;;;;;;;;5034514;28;20065;-54
2023/05/06 02:42:59;;;;;;;46.38;37.63;;;;;;;;;;5034425;28;20030;-51
2023/05/06 02:45:25;;;;;;;51.65;37.47;;;;;;;;;;5033887;28;20468;-54
2023/05/06 02:47:51;;;;;;;67.88;37.85;;;;;;;;;;5034250;28;20034;-51
2023/05/06 02:50:17;;;;;;;50.72;36.80;;;;;;;;;;5033918;28;20091;-53
2023/05/06 02:52:43;;;;;;;44.13;38.72;;;;;;;;;;5034181;28;20056;-52
2023/05/06 02:55:10;;;;;;;41.22;36.90;;;;;;;;;;5034126;28;20049;-52
2023/05/06 02:57:36;;;;;;;45.00;37.92;;;;;;;;;;5034235;28;20022;-52
2023/05/06 03:00:02;;;;;;;164.35;46.67;;;;;;;;;;5032699;28;20151;-54
2023/05/06 03:02:28;;;;;;;87.20;40.13;;;;;;;;;;5034139;28;20029;-53
2023/05/06 03:04:54;;;;;;;79.38;40.25;;;;;;;;;;5033716;28;20520;-54
2023/05/06 03:07:20;;;;;;;57.85;39.85;;;;;;;;;;5034117;28;20025;-54
2023/05/06 03:09:46;;;;;;;76.40;39.47;;;;;;;;;;5033782;28;20060;-56
2023/05/06 03:12:12;;;;;;;77.03;40.33;;;;;;;;;;5032578;28;20554;-53
2023/05/06 03:14:38;;;;;;;93.82;38.42;;;;;;;;;;5032283;28;20029;-55
2023/05/06 03:17:04;;;;;;;119.78;40.55;;;;;;;;;;5033996;28;20024;-55
2023/05/06 03:19:30;;;;;;;99.25;38.17;;;;;;;;;;5032474;28;20018;-54
2023/05/06 03:21:56;;;;;;;136.57;40.85;;;;;;;;;;5033620;28;20378;-53
2023/05/06 03:24:22;;;;;;;78.25;38.92;;;;;;;;;;5033364;28;20047;-54
2023/05/06 03:26:48;;;;;;;80.78;38.72;;;;;;;;;;5033783;28;20025;-54
2023/05/06 03:29:14;;;;;;;84.43;40.25;;;;;;;;;;5024297;28;20048;-57
2023/05/06 03:31:40;;;;;;;76.95;37.88;;;;;;;;;;5035856;28;20396;-56
2023/05/06 03:34:06;;;;;;;77.90;36.42;;;;;;;;;;5032079;28;20091;-56
2023/05/06 03:36:32;;;;;;;76.28;35.75;;;;;;;;;;5035271;28;20482;-54
2023/05/06 03:38:58;;;;;;;67.47;35.55;;;;;;;;;;5039490;28;20021;-56
2023/05/06 03:41:24;;;;;;;65.70;35.72;;;;;;;;;;5032052;28;20028;-52
2023/05/06 03:43:51;;;;;;;42.75;33.70;;;;;;;;;;5035532;28;20029;-51
2023/05/06 03:46:17;;;;;;;51.63;34.50;;;;;;;;;;5032992;28;20124;-55
2023/05/06 03:48:43;;;;;;;49.85;35.45;;;;;;;;;;5032059;28;20469;-54
2023/05/06 03:51:09;;;;;;;41.55;34.97;;;;;;;;;;5032644;28;20083;-57
2023/05/06 03:53:35;;;;;;;52.13;34.97;;;;;;;;;;5033664;28;20056;-55
2023/05/06 03:56:01;;;;;;;41.53;33.95;;;;;;;;;;5033573;28;20013;-53
2023/05/06 03:58:27;;;;;;;50.78;33.40;;;;;;;;;;5035601;28;20022;-53
2023/05/06 04:00:53;;;;;;;46.72;32.83;;;;;;;;;;5032863;28;20452;-55
2023/05/06 04:03:19;;;;;;;66.20;34.15;;;;;;;;;;5031596;28;20036;-52
2023/05/06 04:05:46;;;;;;;48.65;32.05;;;;;;;;;;5032570;28;20025;-50
2023/05/06 04:08:12;;;;;;;53.83;32.42;;;;;;;;;;5033061;28;20047;-56
2023/05/06 04:10:41;;;;;;;49.55;34.65;;;;;;;;;;5031587;28;20036;-56
2023/05/06 04:13:07;;;;;;;62.85;35.15;;;;;;;;;;5036745;28;20071;-51
2023/05/06 04:15:34;;;;;;;47.92;33.35;;;;;;;;;;5032664;28;20421;-54
2023/05/06 04:18:00;;;;;;;46.10;33.13;;;;;;;;;;5031320;28;20029;-54
2023/05/06 04:20:26;;;;;;;43.30;31.80;;;;;;;;;;5031885;28;20406;-51
2023/05/06 04:22:52;;;;;;;36.35;31.02;;;;;;;;;;5032838;28;20513;-55
2023/05/06 04:25:18;;;;;;;58.25;31.02;;;;;;;;;;5032339;28;20030;-56
2023/05/06 04:27:45;;;;;;;53.20;33.47;;;;;;;;;;5031329;28;20034;-55
2023/05/06 04:30:11;;;;;;;51.22;34.58;;;;;;;;;;5031235;28;20375;-55
2023/05/06 04:32:37;;;;;;;71.50;40.30;;;;;;;;;;5031156;28;20563;-52
2023/05/06 04:35:03;;;;;;;76.28;40.38;;;;;;;;;;5031009;28;20053;-55
2023/05/06 04:37:30;;;;;;;80.80;36.33;;;;;;;;;;5032354;28;20029;-56
2023/05/06 04:39:56;;;;;;;54.50;32.47;;;;;;;;;;5032131;28;20021;-50
2023/05/06 04:42:22;;;;;;;73.78;31.20;;;;;;;;;;5031871;28;20393;-51
2023/05/06 04:44:48;;;;;;;43.65;32.75;;;;;;;;;;5032040;28;20018;-53
2023/05/06 04:47:15;;;;;;;75.60;33.58;;;;;;;;;;5051676;28;20027;-55
2023/05/06 04:49:41;;;;;;;67.03;33.63;;;;;;;;;;5051954;28;20393;-55
2023/05/06 04:52:07;;;;;;;78.93;32.33;;;;;;;;;;5052121;28;20024;-52
2023/05/06 04:54:33;;;;;;;93.55;35.65;;;;;;;;;;5051901;28;20074;-51
2023/05/06 04:56:59;;;;;;;156.68;42.17;;;;;;;;;;5051947;28;20028;-53
2023/05/06 04:59:25;;;;;;;89.10;34.55;;;;;;;;;;5052061;28;20021;-54
2023/05/06 05:01:52;;;;;;;48.95;31.17;;;;;;;;;;5052288;28;20621;-52
2023/05/06 05:04:18;;;;;;;53.67;31.48;;;;;;;;;;5051939;28;20506;-58
2023/05/06 05:06:44;;;;;;;55.08;30.85;;;;;;;;;;5051828;28;20029;-56
2023/05/06 05:09:10;;;;;;;59.20;31.65;;;;;;;;;;5051656;28;20554;-57
2023/05/06 05:11:37;;;;;;;52.80;30.40;;;;;;;;;;5051854;28;20087;-55
2023/05/06 05:14:03;;;;;;;62.67;28.63;;;;;;;;;;5051638;28;20059;-54
2023/05/06 05:16:29;;;;;;;48.60;29.80;;;;;;;;;;5051786;28;20040;-51
2023/05/06 05:18:56;;;;;;;63.20;28.40;;;;;;;;;;5051763;28;20017;-54
2023/05/06 05:21:21;;;;;;;79.65;32.40;;;;;;;;;;5050294;28;20060;-52
2023/05/06 05:23:47;;;;;;;54.53;29.92;;;;;;;;;;5051881;28;20053;-54
2023/05/06 05:26:13;;;;;;;55.58;28.42;;;;;;;;;;5043962;28;20431;-52
2023/05/06 05:28:39;;;;;;;38.58;27.77;;;;;;;;;;5031162;28;20029;-53
2023/05/06 05:31:05;;;;;;;46.05;29.17;;;;;;;;;;5034232;28;20025;-56
2023/05/06 05:33:31;;;;;;;59.08;28.77;;;;;;;;;;5035385;28;20021;-54
2023/05/06 05:35:58;;;;;;;40.58;27.63;;;;;;;;;;5029003;28;20033;-56
2023/05/06 05:38:24;;;;;;;36.97;26.75;;;;;;;;;;5012085;28;20153;-56
2023/05/06 05:40:50;;;;;;;42.78;28.60;;;;;;;;;;5012180;28;20026;-57
2023/05/06 05:43:16;;;;;;;38.58;26.17;;;;;;;;;;5028895;28;20109;-57
2023/05/06 05:45:42;;;;;;;36.20;26.25;;;;;;;;;;5011458;28;20037;-57
2023/05/06 05:48:08;;;;;;;77.93;29.08;;;;;;;;;;5011439;28;20061;-53
2023/05/06 05:50:34;;;;;;;46.05;27.20;;;;;;;;;;5035058;23;20532;-60
2023/05/06 05:53:00;;;;;;;36.20;27.77;;;;;;;;;;5012930;28;20056;-61
2023/05/06 05:55:28;;;;;;;66.05;28.38;;;;;;;;;;5014138;28;20034;-57
2023/05/06 05:57:54;;;;;;;36.55;26.45;;;;;;;;;;5016049;28;20100;-60
2023/05/06 06:00:20;;;;;;;44.75;26.23;;;;;;;;;;5031325;28;20072;-61
2023/05/06 06:02:46;;;;;;;42.50;26.40;;;;;;;;;;5035084;28;20025;-61
2023/05/06 06:05:12;;;;;;;56.55;27.33;;;;;;;;;;5034642;28;20076;-60
2023/05/06 06:07:38;;;;;;;58.42;25.73;;;;;;;;;;5035282;28;20178;-61
2023/05/06 06:10:04;;;;;;;84.13;30.65;;;;;;;;;;5035162;28;20032;-60
2023/05/06 06:12:30;;;;;;;41.15;26.20;;;;;;;;;;5034542;28;20405;-62
2023/05/06 06:14:56;;;;;;;30.08;23.73;;;;;;;;;;5036060;28;20023;-62
2023/05/06 06:17:22;;;;;;;39.80;25.20;;;;;;;;;;5034644;28;20092;-60
2023/05/06 06:19:50;;;;;;;50.15;25.48;;;;;;;;;;5034419;28;20021;-63
2023/05/06 06:22:15;;;;;;;34.00;24.00;;;;;;;;;;5035882;28;20018;-63
2023/05/06 06:24:41;;;;;;;34.70;24.10;;;;;;;;;;5035314;28;20022;-62
2023/05/06 06:27:07;;;;;;;33.13;23.48;;;;;;;;;;5034976;28;20058;-61
2023/05/06 06:29:33;;;;;;;34.35;25.55;;;;;;;;;;5036042;28;20079;-62
2023/05/06 06:31:59;;;;;;;33.38;23.90;;;;;;;;;;5042098;28;20392;-62
2023/05/06 06:34:25;;;;;;;34.10;22.67;;;;;;;;;;5041481;28;20062;-61
2023/05/06 06:36:51;;;;;;;61.03;24.40;;;;;;;;;;5035593;28;20025;-55
2023/05/06 06:39:17;;;;;;;43.97;22.50;;;;;;;;;;5032595;28;20053;-52
2023/05/06 06:41:43;;;;;;;37.58;23.42;;;;;;;;;;5032708;28;20021;-50
2023/05/06 06:44:10;;;;;;;32.58;21.90;;;;;;;;;;5032625;28;20444;-53
2023/05/06 06:46:36;;;;;;;38.08;22.92;;;;;;;;;;5032681;28;20041;-54
2023/05/06 06:49:02;;;;;;;31.00;21.85;;;;;;;;;;5032184;28;20083;-49
2023/05/06 06:51:28;;;;;;;49.35;23.45;;;;;;;;;;5032207;28;20480;-53
2023/05/06 06:53:54;;;;;;;42.30;25.77;;;;;;;;;;5032139;28;20116;-52
2023/05/06 06:56:20;;;;;;;38.28;22.05;;;;;;;;;;5032187;28;20132;-50
2023/05/06 06:58:46;;;;;;;37.95;22.33;;;;;;;;;;5030768;28;20117;-53
2023/05/06 07:01:12;;;;;;;34.28;22.60;;;;;;;;;;5030922;28;20108;-52
2023/05/06 07:03:38;;;;;;;31.48;22.65;;;;;;;;;;5032263;28;20033;-51
2023/05/06 07:06:04;;;;;;;40.42;22.13;;;;;;;;;;5030055;28;20028;-56
2023/05/06 07:08:30;;;;;;;32.67;23.13;;;;;;;;;;5032114;28;20037;-50
2023/05/06 07:10:56;;;;;;;34.28;22.67;;;;;;;;;;5030510;28;20033;-55
2023/05/06 07:13:22;;;;;;;43.75;23.73;;;;;;;;;;5031874;28;20075;-56
2023/05/06 07:15:49;;;;;;;40.45;25.33;;;;;;;;;;5030203;28;20018;-52
2023/05/06 07:18:15;;;;;;;40.28;25.55;;;;;;;;;;5031825;28;20017;-54
2023/05/06 07:20:41;;;;;;;38.42;24.48;;;;;;;;;;5030386;28;20037;-56
2023/05/06 07:23:07;;;;;;;38.35;24.38;;;;;;;;;;5031622;28;20029;-56
2023/05/06 07:25:34;;;;;;;35.70;24.02;;;;;;;;;;5031445;28;20421;-53
2023/05/06 07:28:00;;;;;;;40.22;26.25;;;;;;;;;;5031749;28;20378;-51
2023/05/06 07:30:26;;;;;;;34.08;23.88;;;;;;;;;;5031397;28;20033;-53
2023/05/06 07:32:52;;;;;;;34.88;24.65;;;;;;;;;;5030223;28;20099;-50
2023/05/06 07:35:18;;;;;;;34.30;25.20;;;;;;;;;;5031214;28;20025;-53
2023/05/06 07:37:47;;;;;;;36.72;26.45;;;;;;;;;;5031359;28;20022;-50
2023/05/06 07:40:13;;;;;;;38.03;26.98;;;;;;;;;;5029898;28;20036;-54
2023/05/06 07:42:40;;;;;;;37.25;26.67;;;;;;;;;;5031458;28;20034;-55
2023/05/06 07:45:09;;;;;;;39.72;27.75;;;;;;;;;;5031263;28;20026;-55
2023/05/06 07:47:35;;;;;;;41.45;28.13;;;;;;;;;;5031492;28;20036;-55
2023/05/06 07:50:01;;;;;;;47.08;33.50;;;;;;;;;;5030980;28;20414;-54
2023/05/06 07:52:27;;;;;;;49.65;32.63;;;;;;;;;;5029837;28;20057;-56
2023/05/06 07:54:53;;;;;;;49.67;34.97;;;;;;;;;;5030915;28;20100;-54
2023/05/06 07:57:19;;;;;;;38.03;25.58;;;;;;;;;;5029535;28;20117;-56
2023/05/06 07:59:49;;;;;;;38.17;26.55;;;;;;;;;;5030679;28;20025;-52
2023/05/06 08:02:16;;;;;;;38.80;27.92;;;;;;;;;;5029172;28;20052;-60
2023/05/06 08:04:42;;;;;;;40.17;28.10;;;;;;;;;;5027000;28;20040;-59
2023/05/06 08:07:08;;;;;;;42.20;30.80;;;;;;;;;;5030172;28;20034;-59
2023/05/06 08:09:34;;;;;;;41.75;28.65;;;;;;;;;;5029421;28;20034;-59
2023/05/06 08:12:01;;;;;;;41.30;30.30;;;;;;;;;;5030891;28;20073;-58
2023/05/06 08:14:27;;;;;;;43.30;31.13;;;;;;;;;;5030667;28;20640;-59
2023/05/06 08:16:54;;;;;;;40.05;28.75;;;;;;;;;;5028738;28;20547;-60
2023/05/06 08:19:20;;;;;;;39.20;28.10;;;;;;;;;;5030516;28;20025;-60
2023/05/06 08:21:50;;;;;;;36.05;27.45;;;;;;;;;;5030549;28;20033;-59
2023/05/06 08:24:16;;;;;;;36.20;27.38;;;;;;;;;;5030441;28;20021;-59
2023/05/06 08:26:42;;;;;;;32.85;24.13;;;;;;;;;;5030966;28;20029;-60
2023/05/06 08:29:08;;;;;;;35.03;26.00;;;;;;;;;;5030620;28;20472;-59
2023/05/06 08:31:34;;;;;;;32.95;23.50;;;;;;;;;;5030649;28;20033;-60
2023/05/06 08:34:00;;;;;;;29.50;22.75;;;;;;;;;;5030889;28;20096;-60
2023/05/06 08:36:26;;;;;;;30.98;23.65;;;;;;;;;;5030756;28;20041;-60
2023/05/06 08:38:52;;;;;;;34.17;27.17;;;;;;;;;;5030582;28;20032;-58
2023/05/06 08:41:20;;;;;;;32.92;26.13;;;;;;;;;;5030591;28;20057;-61
2023/05/06 08:43:47;;;;;;;30.95;23.67;;;;;;;;;;5029110;28;20025;-60
2023/05/06 08:46:13;;;;;;;32.08;24.55;;;;;;;;;;5030265;28;20030;-59
2023/05/06 08:48:39;;;;;;;34.50;25.83;;;;;;;;;;5029809;28;20029;-61
2023/05/06 08:51:06;;;;;;;32.28;24.38;;;;;;;;;;5029522;28;20095;-60
2023/05/06 08:53:35;;;;;;;32.97;25.80;;;;;;;;;;5028674;28;20018;-59
2023/05/06 08:56:03;;;;;;;33.30;25.63;;;;;;;;;;5027112;28;20030;-60
2023/05/06 08:58:33;;;;;;;34.13;24.95;;;;;;;;;;5027165;28;20329;-59
2023/05/06 09:01:00;;;;;;;35.35;27.02;;;;;;;;;;5028723;28;20055;-59
2023/05/06 09:03:26;;;;;;;37.40;27.88;;;;;;;;;;5026611;28;20023;-60
2023/05/06 09:05:53;;;;;;;34.33;26.08;;;;;;;;;;5028430;28;20065;-60
2023/05/06 09:08:19;;;;;;;33.85;27.13;;;;;;;;;;5030268;28;20125;-60
2023/05/06 09:10:46;;;;;;;32.30;25.73;;;;;;;;;;5028536;28;20389;-60
2023/05/06 09:13:12;;;;;;;34.92;27.70;;;;;;;;;;5030052;28;20021;-59
2023/05/06 09:15:42;;;;;;;35.90;28.90;;;;;;;;;;5028723;28;20025;-59
2023/05/06 09:18:08;;;;;;;33.53;25.63;;;;;;;;;;5029953;28;20021;-60
2023/05/06 09:20:35;;;;;;;31.73;24.35;;;;;;;;;;5029766;28;20066;-58
2023/05/06 09:23:01;;;;;;;30.67;24.55;;;;;;;;;;5030006;28;20481;-59
2023/05/06 09:25:28;;;;;;;31.20;24.85;;;;;;;;;;5029389;28;20037;-61
2023/05/06 09:28:07;;;;;;;32.13;25.65;;;;;;;;;;5029964;28;20025;-59
2023/05/06 09:30:33;;;;;;;32.15;25.60;;;;;;;;;;5033631;28;20112;-60
2023/05/06 09:33:03;;;;;;;32.45;25.70;;;;;;;;;;5033730;28;20029;-60
2023/05/06 09:35:35;;;;;;;30.48;23.00;;;;;;;;;;5033546;28;20014;-61
2023/05/06 09:38:01;;;;;;;29.60;23.75;;;;;;;;;;5033763;28;20524;-61
2023/05/06 09:40:28;;;;;;;31.75;24.83;;;;;;;;;;5032750;28;20029;-60
2023/05/06 09:42:55;;;;;;;30.63;24.63;;;;;;;;;;5037751;28;20025;-61
2023/05/06 09:45:23;;;;;;;30.48;24.67;;;;;;;;;;5035908;28;20422;-61
2023/05/06 09:47:51;;;;;;;32.88;24.67;;;;;;;;;;5032456;28;20025;-61
2023/05/06 09:50:17;;;;;;;31.60;23.95;;;;;;;;;;5033267;28;20058;-60
2023/05/06 09:52:47;;;;;;;30.45;23.55;;;;;;;;;;5033624;28;20470;-60
2023/05/06 09:55:13;;;;;;;30.15;22.33;;;;;;;;;;5033333;28;20086;-61
2023/05/06 09:57:40;;;;;;;30.35;24.20;;;;;;;;;;5033672;28;20478;-62
2023/05/06 10:00:08;;;;;;;28.70;22.70;;;;;;;;;;5032468;28;20025;-61
2023/05/06 10:02:34;;;;;;;30.20;24.08;;;;;;;;;;5033911;28;20030;-62
2023/05/06 10:05:04;;;;;;;33.95;25.10;;;;;;;;;;5032848;28;20709;-61
2023/05/06 10:07:31;;;;;;;33.78;24.55;;;;;;;;;;5033565;28;20477;-62
2023/05/06 10:09:58;;;;;;;29.48;23.27;;;;;;;;;;5033276;28;20107;-62
2023/05/06 10:12:25;;;;;;;29.80;23.08;;;;;;;;;;5033033;28;20026;-60
2023/05/06 10:14:51;;;;;;;31.40;25.30;;;;;;;;;;5031696;28;20014;-61
2023/05/06 10:17:18;;;;;;;30.17;23.20;;;;;;;;;;5027605;28;20421;-60
2023/05/06 10:19:49;;;;;;;30.30;21.98;;;;;;;;;;5026880;28;20034;-60
2023/05/06 10:22:26;;;;;;;28.45;23.42;;;;;;;;;;5032763;28;20177;-62
2023/05/06 10:24:58;;;;;;;30.27;22.52;;;;;;;;;;5024378;28;20478;-61
2023/05/06 10:27:25;;;;;;;31.52;23.95;;;;;;;;;;5032536;28;20044;-62
2023/05/06 10:29:53;;;;;;;31.02;22.88;;;;;;;;;;5029380;28;20033;-59
2023/05/06 10:32:21;;;;;;;32.05;24.05;;;;;;;;;;5032601;28;20021;-58
2023/05/06 10:34:52;;;;;;;29.08;21.52;;;;;;;;;;5032791;28;20032;-58
2023/05/06 10:37:19;;;;;;;32.35;23.75;;;;;;;;;;5033217;28;20049;-58
2023/05/06 10:39:46;;;;;;;30.42;23.00;;;;;;;;;;5032068;28;20035;-61
2023/05/06 10:42:12;;;;;;;28.70;23.35;;;;;;;;;;5032313;28;20420;-58
2023/05/06 10:44:58;;;;;;;31.90;24.38;;;;;;;;;;5032479;28;20044;-58
2023/05/06 10:47:24;;;;;;;30.90;24.08;;;;;;;;;;5032600;28;20032;-58
2023/05/06 10:50:09;;;;;;;30.60;22.95;;;;;;;;;;5032473;28;20195;-60
2023/05/06 10:52:44;;;;;;;33.35;25.70;;;;;;;;;;5032528;28;20025;-60
2023/05/06 10:55:30;;;;;;;28.88;23.20;;;;;;;;;;5032458;28;20379;-61
2023/05/06 10:57:56;;;;;;;31.67;23.55;;;;;;;;;;5032209;28;20049;-60
2023/05/06 11:00:23;;;;;;;28.80;22.52;;;;;;;;;;5031874;28;20052;-60
2023/05/06 11:03:01;;;;;;;31.00;24.75;;;;;;;;;;5016870;28;20030;-61
2023/05/06 11:05:27;;;;;;;29.62;23.78;;;;;;;;;;4666094;28;10000437;-59
2023/05/06 11:08:07;;;;;;;30.17;25.00;;;;;;;;;;5023304;28;20551;-60
2023/05/06 11:10:33;;;;;;;29.65;21.85;;;;;;;;;;5028412;28;20025;-60
2023/05/06 11:13:17;;;;;;;28.33;23.33;;;;;;;;;;5029047;28;20053;-60
2023/05/06 11:15:45;;;;;;;30.10;23.38;;;;;;;;;;5028806;28;20029;-61
2023/05/06 11:18:26;;;;;;;29.42;23.23;;;;;;;;;;5029066;28;20022;-60
2023/05/06 11:21:01;;;;;;;26.52;21.98;;;;;;;;;;5028816;28;20032;-61
2023/05/06 11:23:50;;;;;;;26.88;20.92;;;;;;;;;;5028655;28;20108;-60
2023/05/06 11:26:16;;;;;;;27.92;21.27;;;;;;;;;;5029164;28;20470;-61
2023/05/06 11:28:43;;;;;;;23.90;18.00;;;;;;;;;;5027000;28;20381;-61
2023/05/06 11:31:11;;;;;;;20.10;15.35;;;;;;;;;;4681491;28;9999978;-62
2023/05/06 11:33:37;;;;;;;21.10;16.05;;;;;;;;;;5028497;28;20028;-60
2023/05/06 11:36:04;;;;;;;25.17;18.60;;;;;;;;;;5026692;28;20088;-62
2023/05/06 11:38:40;;;;;;;22.15;16.95;;;;;;;;;;5027160;28;20112;-62
2023/05/06 11:41:06;;;;;;;23.05;17.63;;;;;;;;;;5028614;28;20103;-62
2023/05/06 11:43:32;;;;;;;24.80;19.80;;;;;;;;;;5028605;28;20465;-61
2023/05/06 11:45:58;;;;;;;23.67;20.48;;;;;;;;;;5023077;28;20086;-62
2023/05/06 11:48:24;;;;;;;25.65;19.50;;;;;;;;;;5011057;28;20060;-59
2023/05/06 11:50:50;;;;;;;25.25;19.92;;;;;;;;;;5048481;23;20052;-59
2023/05/06 11:53:18;;;;;;;20.58;17.38;;;;;;;;;;5028841;28;20021;-57
2023/05/06 11:55:44;;;;;;;23.40;17.90;;;;;;;;;;5029039;28;20018;-56
2023/05/06 11:58:19;;;;;;;22.60;18.27;;;;;;;;;;5011422;28;20257;-58
2023/05/06 12:00:49;;;;;;;22.23;18.40;;;;;;;;;;5029472;28;20038;-56
2023/05/06 12:03:15;;;;;;;24.25;19.35;;;;;;;;;;5029496;28;20096;-57
2023/05/06 12:05:41;;;;;;;23.77;18.48;;;;;;;;;;5029371;28;20516;-53
2023/05/06 12:08:08;;;;;;;24.63;20.10;;;;;;;;;;5029400;28;20022;-57
2023/05/06 12:10:34;;;;;;;25.15;19.55;;;;;;;;;;5013329;28;20081;-56
2023/05/06 12:13:00;;;;;;;23.25;18.73;;;;;;;;;;5031503;28;20044;-55
2023/05/06 12:15:27;;;;;;;24.15;18.98;;;;;;;;;;5014182;28;20167;-59
2023/05/06 12:17:53;;;;;;;24.70;19.20;;;;;;;;;;5032590;28;20125;-58
2023/05/06 12:20:20;;;;;;;27.27;21.60;;;;;;;;;;5032325;28;20358;-56
2023/05/06 12:22:46;;;;;;;26.67;21.50;;;;;;;;;;5032494;28;20029;-57
2023/05/06 12:25:13;;;;;;;26.15;19.27;;;;;;;;;;5031619;28;20036;-58
2023/05/06 12:27:39;;;;;;;25.58;20.50;;;;;;;;;;5032123;28;20116;-56
2023/05/06 12:30:07;;;;;;;24.35;19.23;;;;;;;;;;5031676;28;20109;-59
2023/05/06 12:32:33;;;;;;;24.65;19.92;;;;;;;;;;5031899;28;20018;-55
2023/05/06 12:35:04;;;;;;;23.35;19.00;;;;;;;;;;5031680;28;20032;-56
2023/05/06 12:37:30;;;;;;;25.70;18.48;;;;;;;;;;5031877;28;20045;-58
2023/05/06 12:40:16;;;;;;;23.08;18.85;;;;;;;;;;5013187;28;20362;-54
2023/05/06 12:42:42;;;;;;;22.33;18.48;;;;;;;;;;5011003;28;20041;-57
2023/05/06 12:45:14;;;;;;;24.20;18.42;;;;;;;;;;5022485;28;20023;-56
2023/05/06 12:47:51;;;;;;;22.00;18.00;;;;;;;;;;5031257;28;20025;-58
2023/05/06 12:50:33;;;;;;;22.35;18.48;;;;;;;;;;5030106;28;20045;-57
2023/05/06 12:53:00;;;;;;;22.48;18.35;;;;;;;;;;5013078;28;20013;-56
2023/05/06 12:55:26;;;;;;;24.88;19.92;;;;;;;;;;5030516;28;20075;-58
2023/05/06 12:57:52;;;;;;;22.80;18.25;;;;;;;;;;5030467;28;20026;-58
2023/05/06 13:00:19;;;;;;;21.83;17.98;;;;;;;;;;5030870;28;20460;-58
2023/05/06 13:02:45;;;;;;;22.52;18.13;;;;;;;;;;5031388;28;20064;-56
2023/05/06 13:05:11;;;;;;;20.63;17.52;;;;;;;;;;5030842;28;20389;-59
2023/05/06 13:07:37;;;;;;;21.40;17.58;;;;;;;;;;5036934;28;20024;-56
2023/05/06 13:10:04;;;;;;;20.17;16.08;;;;;;;;;;5030573;28;20075;-56
2023/05/06 13:12:31;;;;;;;20.95;17.13;;;;;;;;;;5031313;28;20022;-57
2023/05/06 13:14:57;;;;;;;21.92;16.92;;;;;;;;;;5030639;28;20093;-57
2023/05/06 13:17:23;;;;;;;19.90;16.83;;;;;;;;;;5031279;28;20025;-57
2023/05/06 13:19:49;;;;;;;23.10;17.38;;;;;;;;;;5031096;28;20021;-56
2023/05/06 13:22:15;;;;;;;22.65;17.75;;;;;;;;;;5031234;28;20152;-57
2023/05/06 13:24:42;;;;;;;20.67;16.55;;;;;;;;;;5031089;28;20063;-56
2023/05/06 13:27:08;;;;;;;20.73;16.15;;;;;;;;;;5031290;28;20497;-57
2023/05/06 13:29:34;;;;;;;19.38;16.30;;;;;;;;;;5031112;28;20114;-56
2023/05/06 13:32:00;;;;;;;21.92;17.27;;;;;;;;;;5027048;28;20029;-60
2023/05/06 13:34:26;;;;;;;19.98;15.70;;;;;;;;;;5021146;28;20030;-59
2023/05/06 13:36:53;;;;;;;20.52;16.50;;;;;;;;;;5012475;28;20112;-55
2023/05/06 13:39:19;;;;;;;19.42;15.50;;;;;;;;;;5030398;28;20108;-58
2023/05/06 13:41:46;;;;;;;19.98;16.73;;;;;;;;;;5030853;28;20037;-53
2023/05/06 13:44:12;;;;;;;21.08;17.20;;;;;;;;;;5012233;28;20096;-57
2023/05/06 13:46:45;;;;;;;21.27;16.83;;;;;;;;;;5013046;28;20025;-56
2023/05/06 13:49:11;;;;;;;20.70;16.90;;;;;;;;;;5028020;28;20393;-61
2023/05/06 13:51:37;;;;;;;21.25;17.55;;;;;;;;;;5026236;28;20116;-56
2023/05/06 13:54:03;;;;;;;20.35;16.25;;;;;;;;;;5012712;28;20435;-57
2023/05/06 13:56:45;;;;;;;21.17;17.25;;;;;;;;;;5030436;28;20026;-57
2023/05/06 13:59:12;;;;;;;20.13;16.50;;;;;;;;;;5030365;28;20018;-52
2023/05/06 14:01:39;;;;;;;20.73;16.33;;;;;;;;;;5030490;28;20113;-55
2023/05/06 14:04:05;;;;;;;19.92;16.17;;;;;;;;;;5030735;28;20053;-56
2023/05/06 14:06:43;;;;;;;18.95;16.23;;;;;;;;;;5031040;28;20079;-55
2023/05/06 14:09:11;;;;;;;21.70;16.95;;;;;;;;;;5030512;28;20523;-54
2023/05/06 14:11:37;;;;;;;21.15;18.30;;;;;;;;;;5030677;28;20526;-57
2023/05/06 14:14:03;;;;;;;22.30;17.20;;;;;;;;;;5030365;28;20087;-58
2023/05/06 14:16:41;;;;;;;25.05;17.88;;;;;;;;;;5031762;28;20028;-58